CST,Max TemperatureF,Mean TemperatureF,Min TemperatureF,Max Dew PointF,MeanDew PointF,Min DewpointF,Max Humidity, Mean Humidity, Min Humidity, Max Sea Level PressureIn, Mean Sea Level PressureIn, Min Sea Level PressureIn, Max VisibilityMiles, Mean VisibilityMiles, Min VisibilityMiles, Max Wind SpeedMPH, Mean Wind SpeedMPH, Max Gust SpeedMPH,PrecipitationIn, CloudCover, Events, WindDirDegrees
2012-12-1,77,60,42,64,57,43,100,86,50,30.28,30.23,30.19,10,9,0,9,2,,0.01,3,Fog,124
2012-12-2,78,64,51,66,61,52,100,89,61,30.29,30.24,30.20,10,8,1,13,3,,0.00,1,,134
2012-12-3,78,68,57,66,63,57,100,89,57,30.23,30.20,30.15,10,8,0,16,4,21,0.00,4,Fog,130
2012-12-4,78,70,62,68,65,63,100,94,69,30.25,30.19,30.15,10,9,2,12,4,,0.00,5,Rain-Thunderstorm,140
2012-12-5,69,64,60,66,64,61,100,97,83,30.17,30.10,30.05,10,9,1,9,5,,0.00,7,Rain,52
2012-12-6,73,66,59,66,63,59,100,86,69,30.05,29.99,29.95,10,10,5,10,3,,0.01,7,,123
2012-12-7,77,67,57,68,63,57,100,92,65,30.00,29.95,29.90,10,6,0,8,1,,0.01,5,Fog,158
2012-12-8,77,68,60,68,62,57,100,87,50,30.02,29.97,29.93,10,6,0,8,1,,0.00,4,Fog,158
2012-12-9,78,69,60,73,67,61,100,94,74,30.02,29.96,29.91,10,8,0,13,3,,0.00,6,Fog-Rain,160
2012-12-10,73,58,44,70,59,43,100,94,82,30.04,29.90,29.81,10,10,2,17,9,26,0.00,6,Rain-Thunderstorm,297
2012-12-11,46,42,39,43,37,34,93,81,66,30.20,30.12,30.02,10,10,10,10,6,18,0.00,0,,2
2012-12-12,59,46,33,39,33,23,100,71,27,30.33,30.26,30.19,10,10,10,13,3,17,0.00,1,,352
2012-12-13,62,47,32,43,36,30,100,78,39,30.38,30.32,30.27,10,10,10,7,1,,0.00,0,,14
2012-12-14,66,50,33,55,46,34,100,90,63,30.32,30.23,30.10,10,10,10,12,2,16,0.00,0,,125
2012-12-15,73,63,53,64,59,54,100,89,69,30.12,30.04,29.98,10,10,7,15,5,20,0.00,3,,134
2012-12-16,77,67,57,68,62,57,100,95,73,29.98,29.91,29.83,10,8,0,18,4,37,0.00,5,Fog-Rain-Thunderstorm,149
2012-12-17,68,57,46,66,59,46,100,95,68,29.95,29.84,29.79,10,10,3,12,4,12,0.00,3,Rain-Thunderstorm,216
2012-12-18,69,55,41,54,48,41,100,84,43,30.05,30.00,29.95,10,10,7,10,2,,0.00,0,,141
2012-12-19,75,58,42,70,57,43,100,90,65,30.04,29.97,29.86,10,8,0,17,4,22,0.00,4,Fog-Rain,145
2012-12-20,73,57,41,72,47,30,100,68,41,30.32,30.04,29.82,10,10,3,25,12,38,0.00,3,Rain,283
2012-12-21,57,45,33,36,28,23,93,59,27,30.46,30.38,30.32,10,10,10,14,6,25,0.00,0,,312
2012-12-22,64,47,30,41,33,27,100,70,26,30.44,30.35,30.26,10,10,10,8,0,,0.00,0,,185
2012-12-23,64,53,42,59,52,41,100,88,73,30.26,30.12,29.98,10,10,10,12,3,,0.00,5,,138
2012-12-24,78,66,55,68,62,55,100,88,54,29.98,29.91,29.86,10,10,5,14,6,18,0.00,4,Rain,231
2012-12-25,55,,55,55,55,55,100,100,100,29.87,29.87,29.87,7,7,7,4,4,,0.00,0,,120
2012-12-26,,,,,,,,,,,,,,,,,,,,,,
2012-12-27,53,48,44,45,42,39,93,79,62,30.23,30.08,30.05,10,10,10,7,1,,0.00,5,,96
2012-12-28,66,56,46,66,55,43,100,95,87,30.04,29.89,29.72,10,9,1,21,8,31,0.00,7,Rain-Thunderstorm,129
2012-12-29,51,43,35,45,36,32,93,76,50,30.44,30.25,30.01,10,10,10,23,11,30,0.00,4,,321
2012-12-30,53,42,30,37,32,28,100,76,38,30.55,30.45,30.36,10,10,7,8,3,,0.00,0,,35
2012-12-31,64,50,37,59,46,34,100,80,66,30.36,30.23,30.07,10,10,10,13,4,20,0.00,7,Rain,122